Hlavní strana
METAR-TAF:

METAR-TAF

Letiště :

Accra, Ghana

zeměpisná šířka: 05-36N, zeměpisná délka: 000-10W, výška: 68 m

Aktuální stav počasí

Zpráva byla vytvořena před 12 hodinami a 30 minutami, v 04:00 UTC
Západní vítr 7 kt
Teplota 25°C
Vlhkost vzduchu 89%
Tlak 1008 hPa
Viditelnost 10 km a více
Žádná oblačnost pod 1500 m, nevyskytují se cumulonimby.

METAR: DGAA 220400Z 26007KT CAVOK 25/23 Q1008 NOSIG

Čas: 16:30 (16:30 UTC)

Předpověď počasí

Zpráva byla vytvořena před 17 hodinami a 30 minutami, v 23:00 UTC
Předpověď platná od 22 v 00 UTC do 23 v 06 UTC
Západní vítr 7 kt
Viditelnost 10 km a více
Žádná oblačnost pod 1500 m, nevyskytují se cumulonimby.
Dočasný
od 22 v 06 UTC do 22 v 09 UTC
Viditelnost: 5000 m
kouřmo
Změna
od 22 v 11 UTC do 22 v 13 UTC
Jižní vítr 14 kt
Dočasný
od 22 v 18 UTC do 22 v 22 UTC
Polojasno ve výšce 2000 ft, Cumulonimbus.
bouřka

TAF: DGAA 212300Z 2200/2306 27007KT CAVOK TEMPO 2206/2209 5000 BR BECMG 2211/2213 19014KT TEMPO 2218/2222 TS SCT020CB

Stav a předpovědi počasí z více než 4 000 letišť (zprávy METAR a TAF).

Červené a žluté tečky na mapě představují dostupné meteorologické stanice.

Když kurzor umístíte na tečku, zobrazí se název stanice.

Pak kliknutím zobrazíte stav a předpověď počasí.

Chcete-li změnit mapu, kliknutím na zelené tlačítko se znaménkem +mapu přiblížíte, kliknutím na zelené tlačítko se znaménkem – mapu oddálíte a kliknutím na zelené šipky přejdete na sousední mapy.


METAR-TAF: